sensor_id;sensor_type;location;lat;lon;timestamp;P1;durP1;ratioP1;P2;durP2;ratioP2
23384;SDS011;11865;45.394;10.978;2023-08-21T00:02:02;16.35;;;13.80;;
23384;SDS011;11865;45.394;10.978;2023-08-21T00:04:29;15.27;;;13.07;;
23384;SDS011;11865;45.394;10.978;2023-08-21T00:06:57;19.00;;;13.43;;
23384;SDS011;11865;45.394;10.978;2023-08-21T00:09:24;19.40;;;13.15;;
23384;SDS011;11865;45.394;10.978;2023-08-21T00:11:52;16.33;;;13.52;;
23384;SDS011;11865;45.394;10.978;2023-08-21T00:14:19;15.05;;;13.45;;
23384;SDS011;11865;45.394;10.978;2023-08-21T00:16:47;15.43;;;12.95;;
23384;SDS011;11865;45.394;10.978;2023-08-21T00:19:14;15.50;;;13.75;;
23384;SDS011;11865;45.394;10.978;2023-08-21T00:21:42;16.38;;;12.25;;
23384;SDS011;11865;45.394;10.978;2023-08-21T00:24:09;15.25;;;12.88;;
23384;SDS011;11865;45.394;10.978;2023-08-21T00:26:37;18.15;;;11.57;;
23384;SDS011;11865;45.394;10.978;2023-08-21T00:29:04;16.30;;;13.20;;
23384;SDS011;11865;45.394;10.978;2023-08-21T00:31:31;16.15;;;12.88;;
23384;SDS011;11865;45.394;10.978;2023-08-21T00:33:59;14.05;;;12.45;;
23384;SDS011;11865;45.394;10.978;2023-08-21T00:36:27;14.32;;;11.82;;
23384;SDS011;11865;45.394;10.978;2023-08-21T00:38:54;15.30;;;12.77;;
23384;SDS011;11865;45.394;10.978;2023-08-21T00:41:22;18.33;;;12.90;;
23384;SDS011;11865;45.394;10.978;2023-08-21T00:43:49;16.50;;;12.02;;
23384;SDS011;11865;45.394;10.978;2023-08-21T00:46:17;18.02;;;12.80;;
23384;SDS011;11865;45.394;10.978;2023-08-21T00:48:45;14.05;;;12.57;;
23384;SDS011;11865;45.394;10.978;2023-08-21T00:51:14;15.35;;;12.43;;
23384;SDS011;11865;45.394;10.978;2023-08-21T00:53:43;15.55;;;12.05;;
23384;SDS011;11865;45.394;10.978;2023-08-21T00:56:12;13.15;;;11.57;;
23384;SDS011;11865;45.394;10.978;2023-08-21T00:58:40;17.30;;;11.68;;
23384;SDS011;11865;45.394;10.978;2023-08-21T01:01:08;15.85;;;11.25;;
23384;SDS011;11865;45.394;10.978;2023-08-21T01:03:36;14.82;;;12.20;;
23384;SDS011;11865;45.394;10.978;2023-08-21T01:06:03;15.80;;;12.05;;
23384;SDS011;11865;45.394;10.978;2023-08-21T01:16:58;14.55;;;12.07;;
23384;SDS011;11865;45.394;10.978;2023-08-21T01:19:31;13.70;;;11.68;;
23384;SDS011;11865;45.394;10.978;2023-08-21T01:22:09;14.48;;;12.00;;
23384;SDS011;11865;45.394;10.978;2023-08-21T01:24:36;13.55;;;11.57;;
23384;SDS011;11865;45.394;10.978;2023-08-21T01:27:04;18.42;;;13.27;;
23384;SDS011;11865;45.394;10.978;2023-08-21T01:29:32;15.30;;;11.75;;
23384;SDS011;11865;45.394;10.978;2023-08-21T01:32:07;15.35;;;11.80;;
23384;SDS011;11865;45.394;10.978;2023-08-21T01:34:43;14.18;;;11.82;;
23384;SDS011;11865;45.394;10.978;2023-08-21T01:37:12;13.57;;;12.20;;
23384;SDS011;11865;45.394;10.978;2023-08-21T01:39:40;14.68;;;11.38;;
23384;SDS011;11865;45.394;10.978;2023-08-21T01:42:08;14.35;;;12.32;;
23384;SDS011;11865;45.394;10.978;2023-08-21T01:44:36;15.20;;;12.45;;
23384;SDS011;11865;45.394;10.978;2023-08-21T01:47:03;13.85;;;11.88;;
23384;SDS011;11865;45.394;10.978;2023-08-21T01:49:31;13.35;;;12.02;;
23384;SDS011;11865;45.394;10.978;2023-08-21T01:51:58;13.07;;;11.63;;
23384;SDS011;11865;45.394;10.978;2023-08-21T01:54:26;16.15;;;12.48;;
23384;SDS011;11865;45.394;10.978;2023-08-21T01:56:53;14.90;;;12.32;;
23384;SDS011;11865;45.394;10.978;2023-08-21T01:59:21;15.40;;;12.18;;
23384;SDS011;11865;45.394;10.978;2023-08-21T02:01:50;14.45;;;12.25;;
23384;SDS011;11865;45.394;10.978;2023-08-21T02:04:18;14.88;;;12.35;;
23384;SDS011;11865;45.394;10.978;2023-08-21T02:06:46;15.55;;;12.85;;
23384;SDS011;11865;45.394;10.978;2023-08-21T02:09:13;16.20;;;13.38;;
23384;SDS011;11865;45.394;10.978;2023-08-21T02:11:41;14.20;;;12.45;;
23384;SDS011;11865;45.394;10.978;2023-08-21T02:14:08;17.75;;;12.30;;
23384;SDS011;11865;45.394;10.978;2023-08-21T02:16:36;14.32;;;11.55;;
23384;SDS011;11865;45.394;10.978;2023-08-21T02:19:03;13.82;;;11.43;;
23384;SDS011;11865;45.394;10.978;2023-08-21T02:21:31;13.65;;;10.88;;
23384;SDS011;11865;45.394;10.978;2023-08-21T02:23:59;12.60;;;11.15;;
23384;SDS011;11865;45.394;10.978;2023-08-21T02:26:26;13.73;;;11.25;;
23384;SDS011;11865;45.394;10.978;2023-08-21T02:28:54;13.85;;;11.15;;
23384;SDS011;11865;45.394;10.978;2023-08-21T02:31:21;13.55;;;9.30;;
23384;SDS011;11865;45.394;10.978;2023-08-21T02:33:49;11.73;;;10.25;;
23384;SDS011;11865;45.394;10.978;2023-08-21T02:36:18;13.13;;;11.27;;
23384;SDS011;11865;45.394;10.978;2023-08-21T02:38:46;14.32;;;11.32;;
23384;SDS011;11865;45.394;10.978;2023-08-21T02:41:13;12.63;;;10.80;;
23384;SDS011;11865;45.394;10.978;2023-08-21T02:43:44;16.60;;;11.98;;
23384;SDS011;11865;45.394;10.978;2023-08-21T02:46:11;13.57;;;11.15;;
23384;SDS011;11865;45.394;10.978;2023-08-21T02:48:39;13.10;;;10.63;;
23384;SDS011;11865;45.394;10.978;2023-08-21T02:51:06;13.43;;;11.15;;
23384;SDS011;11865;45.394;10.978;2023-08-21T02:53:35;12.07;;;10.70;;
23384;SDS011;11865;45.394;10.978;2023-08-21T02:56:03;17.73;;;11.13;;
23384;SDS011;11865;45.394;10.978;2023-08-21T02:58:31;15.00;;;11.32;;
23384;SDS011;11865;45.394;10.978;2023-08-21T03:00:58;12.13;;;10.85;;
23384;SDS011;11865;45.394;10.978;2023-08-21T03:03:26;14.63;;;11.68;;
23384;SDS011;11865;45.394;10.978;2023-08-21T03:05:53;14.80;;;10.70;;
23384;SDS011;11865;45.394;10.978;2023-08-21T03:08:21;14.93;;;11.15;;
23384;SDS011;11865;45.394;10.978;2023-08-21T03:10:48;14.73;;;11.02;;
23384;SDS011;11865;45.394;10.978;2023-08-21T03:13:16;12.35;;;11.07;;
23384;SDS011;11865;45.394;10.978;2023-08-21T03:15:46;20.02;;;12.23;;
23384;SDS011;11865;45.394;10.978;2023-08-21T03:18:14;12.90;;;11.48;;
23384;SDS011;11865;45.394;10.978;2023-08-21T03:20:45;13.68;;;10.88;;
23384;SDS011;11865;45.394;10.978;2023-08-21T03:23:13;15.88;;;12.63;;
23384;SDS011;11865;45.394;10.978;2023-08-21T03:25:41;15.43;;;12.00;;
23384;SDS011;11865;45.394;10.978;2023-08-21T03:28:09;13.18;;;11.73;;
23384;SDS011;11865;45.394;10.978;2023-08-21T03:30:38;17.20;;;12.30;;
23384;SDS011;11865;45.394;10.978;2023-08-21T03:33:06;14.15;;;11.48;;
23384;SDS011;11865;45.394;10.978;2023-08-21T03:35:35;14.40;;;11.98;;
23384;SDS011;11865;45.394;10.978;2023-08-21T03:38:02;14.73;;;11.70;;
23384;SDS011;11865;45.394;10.978;2023-08-21T03:40:38;15.60;;;12.27;;
23384;SDS011;11865;45.394;10.978;2023-08-21T03:43:06;15.27;;;12.40;;
23384;SDS011;11865;45.394;10.978;2023-08-21T03:45:34;14.75;;;12.82;;
23384;SDS011;11865;45.394;10.978;2023-08-21T03:48:03;16.90;;;12.90;;
23384;SDS011;11865;45.394;10.978;2023-08-21T03:50:30;16.30;;;12.27;;
23384;SDS011;11865;45.394;10.978;2023-08-21T03:52:58;16.65;;;12.70;;
23384;SDS011;11865;45.394;10.978;2023-08-21T03:55:26;15.25;;;12.30;;
23384;SDS011;11865;45.394;10.978;2023-08-21T03:57:53;15.77;;;12.02;;
23384;SDS011;11865;45.394;10.978;2023-08-21T04:00:21;17.73;;;12.55;;
23384;SDS011;11865;45.394;10.978;2023-08-21T04:02:50;18.20;;;12.85;;
23384;SDS011;11865;45.394;10.978;2023-08-21T04:05:17;17.33;;;12.15;;
23384;SDS011;11865;45.394;10.978;2023-08-21T04:07:45;16.65;;;12.95;;
23384;SDS011;11865;45.394;10.978;2023-08-21T04:10:12;15.15;;;12.77;;
23384;SDS011;11865;45.394;10.978;2023-08-21T04:12:39;16.98;;;12.93;;
23384;SDS011;11865;45.394;10.978;2023-08-21T04:15:08;16.73;;;13.38;;
23384;SDS011;11865;45.394;10.978;2023-08-21T04:17:36;16.25;;;12.55;;
23384;SDS011;11865;45.394;10.978;2023-08-21T04:20:04;17.63;;;13.25;;
23384;SDS011;11865;45.394;10.978;2023-08-21T04:22:33;13.70;;;11.77;;
23384;SDS011;11865;45.394;10.978;2023-08-21T04:25:01;20.75;;;12.77;;
23384;SDS011;11865;45.394;10.978;2023-08-21T04:27:29;19.02;;;12.73;;
23384;SDS011;11865;45.394;10.978;2023-08-21T04:29:56;17.15;;;12.02;;
23384;SDS011;11865;45.394;10.978;2023-08-21T04:32:24;16.35;;;12.18;;
23384;SDS011;11865;45.394;10.978;2023-08-21T04:34:52;18.60;;;12.07;;
23384;SDS011;11865;45.394;10.978;2023-08-21T04:37:19;17.08;;;11.82;;
23384;SDS011;11865;45.394;10.978;2023-08-21T04:39:51;15.00;;;12.27;;
23384;SDS011;11865;45.394;10.978;2023-08-21T04:42:22;15.30;;;11.43;;
23384;SDS011;11865;45.394;10.978;2023-08-21T04:44:49;16.67;;;12.30;;
23384;SDS011;11865;45.394;10.978;2023-08-21T04:49:58;14.52;;;11.95;;
23384;SDS011;11865;45.394;10.978;2023-08-21T04:52:28;16.17;;;11.82;;
23384;SDS011;11865;45.394;10.978;2023-08-21T04:54:56;16.40;;;12.07;;
23384;SDS011;11865;45.394;10.978;2023-08-21T04:57:23;15.15;;;11.65;;
23384;SDS011;11865;45.394;10.978;2023-08-21T04:59:51;15.38;;;12.32;;
23384;SDS011;11865;45.394;10.978;2023-08-21T05:02:20;13.82;;;11.82;;
23384;SDS011;11865;45.394;10.978;2023-08-21T05:04:50;18.92;;;11.82;;
23384;SDS011;11865;45.394;10.978;2023-08-21T05:07:18;17.83;;;11.75;;
23384;SDS011;11865;45.394;10.978;2023-08-21T05:09:46;16.83;;;11.45;;
23384;SDS011;11865;45.394;10.978;2023-08-21T05:12:14;13.57;;;11.43;;
23384;SDS011;11865;45.394;10.978;2023-08-21T05:14:42;16.08;;;11.60;;
23384;SDS011;11865;45.394;10.978;2023-08-21T05:17:09;16.25;;;11.85;;
23384;SDS011;11865;45.394;10.978;2023-08-21T05:19:37;15.13;;;12.18;;
23384;SDS011;11865;45.394;10.978;2023-08-21T05:22:05;19.73;;;12.30;;
23384;SDS011;11865;45.394;10.978;2023-08-21T05:24:34;18.58;;;11.57;;
23384;SDS011;11865;45.394;10.978;2023-08-21T05:27:04;16.40;;;10.93;;
23384;SDS011;11865;45.394;10.978;2023-08-21T05:29:32;19.42;;;12.13;;
23384;SDS011;11865;45.394;10.978;2023-08-21T05:32:00;18.52;;;11.55;;
23384;SDS011;11865;45.394;10.978;2023-08-21T05:34:27;12.57;;;10.13;;
23384;SDS011;11865;45.394;10.978;2023-08-21T05:36:56;19.17;;;11.27;;
23384;SDS011;11865;45.394;10.978;2023-08-21T05:39:24;17.48;;;10.60;;
23384;SDS011;11865;45.394;10.978;2023-08-21T05:41:52;15.25;;;10.45;;
23384;SDS011;11865;45.394;10.978;2023-08-21T05:44:20;13.55;;;9.75;;
23384;SDS011;11865;45.394;10.978;2023-08-21T05:46:48;17.58;;;9.75;;
23384;SDS011;11865;45.394;10.978;2023-08-21T05:49:16;16.55;;;9.00;;
23384;SDS011;11865;45.394;10.978;2023-08-21T05:51:43;18.08;;;8.98;;
23384;SDS011;11865;45.394;10.978;2023-08-21T05:54:11;10.55;;;9.02;;
23384;SDS011;11865;45.394;10.978;2023-08-21T05:56:40;16.38;;;9.43;;
23384;SDS011;11865;45.394;10.978;2023-08-21T05:59:09;13.85;;;8.63;;
23384;SDS011;11865;45.394;10.978;2023-08-21T06:01:38;15.52;;;8.60;;
23384;SDS011;11865;45.394;10.978;2023-08-21T06:04:05;10.90;;;8.52;;
23384;SDS011;11865;45.394;10.978;2023-08-21T06:06:42;11.93;;;7.95;;
23384;SDS011;11865;45.394;10.978;2023-08-21T06:09:09;12.82;;;8.25;;
23384;SDS011;11865;45.394;10.978;2023-08-21T06:11:38;9.07;;;8.15;;
23384;SDS011;11865;45.394;10.978;2023-08-21T06:14:06;11.68;;;7.78;;
23384;SDS011;11865;45.394;10.978;2023-08-21T06:16:34;9.82;;;8.00;;
23384;SDS011;11865;45.394;10.978;2023-08-21T06:19:02;10.15;;;7.72;;
23384;SDS011;11865;45.394;10.978;2023-08-21T06:21:29;12.07;;;7.90;;
23384;SDS011;11865;45.394;10.978;2023-08-21T06:23:57;8.80;;;7.80;;
23384;SDS011;11865;45.394;10.978;2023-08-21T06:26:24;8.75;;;7.18;;
23384;SDS011;11865;45.394;10.978;2023-08-21T06:28:52;8.73;;;7.82;;
23384;SDS011;11865;45.394;10.978;2023-08-21T06:31:20;11.07;;;7.72;;
23384;SDS011;11865;45.394;10.978;2023-08-21T06:33:48;10.30;;;7.30;;
23384;SDS011;11865;45.394;10.978;2023-08-21T06:36:17;10.48;;;7.53;;
23384;SDS011;11865;45.394;10.978;2023-08-21T06:38:45;12.02;;;7.25;;
23384;SDS011;11865;45.394;10.978;2023-08-21T06:41:12;12.45;;;7.47;;
23384;SDS011;11865;45.394;10.978;2023-08-21T06:43:41;10.40;;;7.28;;
23384;SDS011;11865;45.394;10.978;2023-08-21T06:46:14;10.32;;;7.70;;
23384;SDS011;11865;45.394;10.978;2023-08-21T06:48:41;7.70;;;6.88;;
23384;SDS011;11865;45.394;10.978;2023-08-21T06:51:09;10.52;;;6.68;;
23384;SDS011;11865;45.394;10.978;2023-08-21T06:53:41;9.38;;;7.07;;
23384;SDS011;11865;45.394;10.978;2023-08-21T06:56:09;8.75;;;7.18;;
23384;SDS011;11865;45.394;10.978;2023-08-21T06:58:36;9.35;;;6.93;;
23384;SDS011;11865;45.394;10.978;2023-08-21T07:01:04;8.43;;;6.57;;
23384;SDS011;11865;45.394;10.978;2023-08-21T07:03:31;12.30;;;6.80;;
23384;SDS011;11865;45.394;10.978;2023-08-21T07:05:59;7.63;;;6.88;;
23384;SDS011;11865;45.394;10.978;2023-08-21T07:08:27;12.27;;;7.25;;
23384;SDS011;11865;45.394;10.978;2023-08-21T07:10:55;11.90;;;6.88;;
23384;SDS011;11865;45.394;10.978;2023-08-21T07:13:23;21.60;;;7.75;;
23384;SDS011;11865;45.394;10.978;2023-08-21T07:15:52;11.07;;;6.72;;
23384;SDS011;11865;45.394;10.978;2023-08-21T07:18:21;10.53;;;7.67;;
23384;SDS011;11865;45.394;10.978;2023-08-21T07:20:51;10.52;;;7.35;;
23384;SDS011;11865;45.394;10.978;2023-08-21T07:23:20;8.85;;;7.57;;
23384;SDS011;11865;45.394;10.978;2023-08-21T07:25:47;9.95;;;6.95;;
23384;SDS011;11865;45.394;10.978;2023-08-21T07:28:15;10.35;;;7.40;;
23384;SDS011;11865;45.394;10.978;2023-08-21T07:30:42;11.23;;;6.82;;
23384;SDS011;11865;45.394;10.978;2023-08-21T07:33:10;10.50;;;7.18;;
23384;SDS011;11865;45.394;10.978;2023-08-21T07:35:38;8.15;;;7.20;;
23384;SDS011;11865;45.394;10.978;2023-08-21T07:38:05;10.73;;;6.88;;
23384;SDS011;11865;45.394;10.978;2023-08-21T07:40:33;7.93;;;6.55;;
23384;SDS011;11865;45.394;10.978;2023-08-21T07:43:00;11.35;;;6.68;;
23384;SDS011;11865;45.394;10.978;2023-08-21T07:45:28;16.63;;;8.18;;
23384;SDS011;11865;45.394;10.978;2023-08-21T07:47:55;9.68;;;7.07;;
23384;SDS011;11865;45.394;10.978;2023-08-21T07:50:39;12.98;;;7.45;;
23384;SDS011;11865;45.394;10.978;2023-08-21T07:53:07;14.23;;;8.05;;
23384;SDS011;11865;45.394;10.978;2023-08-21T07:55:34;15.05;;;8.02;;
23384;SDS011;11865;45.394;10.978;2023-08-21T07:58:02;14.98;;;8.00;;
23384;SDS011;11865;45.394;10.978;2023-08-21T08:00:31;13.80;;;7.93;;
23384;SDS011;11865;45.394;10.978;2023-08-21T08:02:59;13.68;;;7.60;;
23384;SDS011;11865;45.394;10.978;2023-08-21T08:05:26;10.50;;;7.78;;
23384;SDS011;11865;45.394;10.978;2023-08-21T08:07:54;11.38;;;7.70;;
23384;SDS011;11865;45.394;10.978;2023-08-21T08:10:21;13.77;;;7.95;;
23384;SDS011;11865;45.394;10.978;2023-08-21T08:12:49;11.90;;;7.68;;
23384;SDS011;11865;45.394;10.978;2023-08-21T08:15:17;13.80;;;7.72;;
23384;SDS011;11865;45.394;10.978;2023-08-21T08:17:45;14.35;;;7.53;;
23384;SDS011;11865;45.394;10.978;2023-08-21T08:20:13;14.23;;;7.82;;
23384;SDS011;11865;45.394;10.978;2023-08-21T08:22:41;9.50;;;7.07;;
23384;SDS011;11865;45.394;10.978;2023-08-21T08:25:08;13.30;;;8.10;;
23384;SDS011;11865;45.394;10.978;2023-08-21T08:27:37;10.88;;;7.75;;
23384;SDS011;11865;45.394;10.978;2023-08-21T08:30:05;11.45;;;8.48;;
23384;SDS011;11865;45.394;10.978;2023-08-21T08:32:34;16.13;;;7.53;;
23384;SDS011;11865;45.394;10.978;2023-08-21T08:35:02;9.73;;;8.60;;
23384;SDS011;11865;45.394;10.978;2023-08-21T08:37:29;9.75;;;8.48;;
23384;SDS011;11865;45.394;10.978;2023-08-21T08:39:57;12.25;;;8.20;;
23384;SDS011;11865;45.394;10.978;2023-08-21T08:42:24;10.60;;;8.13;;
23384;SDS011;11865;45.394;10.978;2023-08-21T08:44:52;9.20;;;8.35;;
23384;SDS011;11865;45.394;10.978;2023-08-21T08:47:22;11.02;;;8.38;;
23384;SDS011;11865;45.394;10.978;2023-08-21T08:49:51;8.88;;;7.97;;
23384;SDS011;11865;45.394;10.978;2023-08-21T08:52:21;9.93;;;7.82;;
23384;SDS011;11865;45.394;10.978;2023-08-21T08:54:50;16.08;;;8.40;;
23384;SDS011;11865;45.394;10.978;2023-08-21T08:57:18;11.60;;;8.30;;
23384;SDS011;11865;45.394;10.978;2023-08-21T08:59:45;9.48;;;8.48;;
23384;SDS011;11865;45.394;10.978;2023-08-21T09:02:14;8.75;;;7.95;;
23384;SDS011;11865;45.394;10.978;2023-08-21T09:04:43;11.40;;;8.48;;
23384;SDS011;11865;45.394;10.978;2023-08-21T09:07:11;12.38;;;8.60;;
23384;SDS011;11865;45.394;10.978;2023-08-21T09:09:44;15.73;;;8.88;;
23384;SDS011;11865;45.394;10.978;2023-08-21T09:12:13;13.50;;;8.38;;
23384;SDS011;11865;45.394;10.978;2023-08-21T09:14:41;11.10;;;9.25;;
23384;SDS011;11865;45.394;10.978;2023-08-21T09:17:10;12.23;;;8.45;;
23384;SDS011;11865;45.394;10.978;2023-08-21T09:19:39;11.70;;;8.30;;
23384;SDS011;11865;45.394;10.978;2023-08-21T09:22:11;9.07;;;8.18;;
23384;SDS011;11865;45.394;10.978;2023-08-21T09:27:34;9.50;;;8.50;;
23384;SDS011;11865;45.394;10.978;2023-08-21T09:30:04;13.02;;;8.25;;
23384;SDS011;11865;45.394;10.978;2023-08-21T09:32:35;11.80;;;9.05;;
23384;SDS011;11865;45.394;10.978;2023-08-21T09:35:19;11.50;;;9.18;;
23384;SDS011;11865;45.394;10.978;2023-08-21T09:37:47;18.70;;;10.25;;
23384;SDS011;11865;45.394;10.978;2023-08-21T09:40:15;12.48;;;8.82;;
23384;SDS011;11865;45.394;10.978;2023-08-21T09:42:43;11.70;;;9.45;;
23384;SDS011;11865;45.394;10.978;2023-08-21T09:45:10;11.52;;;8.50;;
23384;SDS011;11865;45.394;10.978;2023-08-21T09:47:38;14.50;;;9.25;;
23384;SDS011;11865;45.394;10.978;2023-08-21T09:50:07;9.38;;;8.45;;
23384;SDS011;11865;45.394;10.978;2023-08-21T09:52:36;14.32;;;8.82;;
23384;SDS011;11865;45.394;10.978;2023-08-21T09:55:03;12.57;;;8.88;;
23384;SDS011;11865;45.394;10.978;2023-08-21T09:57:32;13.60;;;10.50;;
23384;SDS011;11865;45.394;10.978;2023-08-21T10:00:00;12.13;;;8.85;;
23384;SDS011;11865;45.394;10.978;2023-08-21T10:02:38;13.63;;;8.70;;
23384;SDS011;11865;45.394;10.978;2023-08-21T10:05:06;10.38;;;9.05;;
23384;SDS011;11865;45.394;10.978;2023-08-21T10:07:34;13.13;;;9.55;;
23384;SDS011;11865;45.394;10.978;2023-08-21T10:10:02;15.20;;;9.30;;
23384;SDS011;11865;45.394;10.978;2023-08-21T10:12:30;10.15;;;9.15;;
23384;SDS011;11865;45.394;10.978;2023-08-21T10:14:58;14.98;;;9.65;;
23384;SDS011;11865;45.394;10.978;2023-08-21T10:17:25;13.75;;;9.40;;
23384;SDS011;11865;45.394;10.978;2023-08-21T10:19:53;11.15;;;8.75;;
23384;SDS011;11865;45.394;10.978;2023-08-21T10:22:42;14.00;;;9.60;;
23384;SDS011;11865;45.394;10.978;2023-08-21T10:27:58;16.13;;;9.88;;
23384;SDS011;11865;45.394;10.978;2023-08-21T10:30:28;12.10;;;9.93;;
23384;SDS011;11865;45.394;10.978;2023-08-21T10:32:57;11.07;;;9.27;;
23384;SDS011;11865;45.394;10.978;2023-08-21T10:35:30;13.27;;;10.07;;
23384;SDS011;11865;45.394;10.978;2023-08-21T10:43:45;12.98;;;10.30;;
23384;SDS011;11865;45.394;10.978;2023-08-21T10:46:13;12.80;;;9.73;;
23384;SDS011;11865;45.394;10.978;2023-08-21T10:48:42;12.77;;;9.50;;
23384;SDS011;11865;45.394;10.978;2023-08-21T10:51:10;15.68;;;10.32;;
23384;SDS011;11865;45.394;10.978;2023-08-21T10:53:39;12.25;;;9.88;;
23384;SDS011;11865;45.394;10.978;2023-08-21T10:56:09;11.70;;;9.98;;
23384;SDS011;11865;45.394;10.978;2023-08-21T10:58:43;10.88;;;9.82;;
23384;SDS011;11865;45.394;10.978;2023-08-21T11:01:13;18.70;;;9.75;;
23384;SDS011;11865;45.394;10.978;2023-08-21T11:03:44;13.15;;;9.48;;
23384;SDS011;11865;45.394;10.978;2023-08-21T11:06:13;11.93;;;9.88;;
23384;SDS011;11865;45.394;10.978;2023-08-21T11:08:41;13.48;;;10.32;;
23384;SDS011;11865;45.394;10.978;2023-08-21T11:11:10;11.68;;;9.35;;
23384;SDS011;11865;45.394;10.978;2023-08-21T11:13:37;10.75;;;9.65;;
23384;SDS011;11865;45.394;10.978;2023-08-21T11:16:05;18.98;;;11.85;;
23384;SDS011;11865;45.394;10.978;2023-08-21T11:18:33;12.43;;;10.77;;
23384;SDS011;11865;45.394;10.978;2023-08-21T11:21:06;11.07;;;9.98;;
23384;SDS011;11865;45.394;10.978;2023-08-21T11:23:36;12.40;;;10.73;;
23384;SDS011;11865;45.394;10.978;2023-08-21T11:26:05;12.13;;;10.85;;
23384;SDS011;11865;45.394;10.978;2023-08-21T11:28:47;11.25;;;10.13;;
23384;SDS011;11865;45.394;10.978;2023-08-21T11:31:15;17.75;;;10.52;;
23384;SDS011;11865;45.394;10.978;2023-08-21T11:33:49;14.15;;;10.73;;
23384;SDS011;11865;45.394;10.978;2023-08-21T11:36:17;10.52;;;9.45;;
23384;SDS011;11865;45.394;10.978;2023-08-21T11:38:58;13.45;;;10.63;;
23384;SDS011;11865;45.394;10.978;2023-08-21T11:41:27;15.20;;;10.48;;
23384;SDS011;11865;45.394;10.978;2023-08-21T11:44:01;11.45;;;10.35;;
23384;SDS011;11865;45.394;10.978;2023-08-21T11:46:30;14.60;;;9.80;;
23384;SDS011;11865;45.394;10.978;2023-08-21T11:48:58;10.57;;;9.48;;
23384;SDS011;11865;45.394;10.978;2023-08-21T11:51:27;13.10;;;10.15;;
23384;SDS011;11865;45.394;10.978;2023-08-21T11:53:55;10.43;;;9.05;;
23384;SDS011;11865;45.394;10.978;2023-08-21T11:56:22;12.25;;;9.25;;
23384;SDS011;11865;45.394;10.978;2023-08-21T11:58:55;10.75;;;9.18;;
23384;SDS011;11865;45.394;10.978;2023-08-21T12:01:23;13.85;;;9.68;;
23384;SDS011;11865;45.394;10.978;2023-08-21T12:03:50;13.65;;;9.88;;
23384;SDS011;11865;45.394;10.978;2023-08-21T12:06:22;15.77;;;10.18;;
23384;SDS011;11865;45.394;10.978;2023-08-21T12:08:52;13.85;;;10.40;;
23384;SDS011;11865;45.394;10.978;2023-08-21T12:11:20;24.52;;;10.15;;
23384;SDS011;11865;45.394;10.978;2023-08-21T12:13:48;11.40;;;9.88;;
23384;SDS011;11865;45.394;10.978;2023-08-21T12:16:15;14.13;;;10.27;;
23384;SDS011;11865;45.394;10.978;2023-08-21T12:18:43;12.40;;;10.82;;
23384;SDS011;11865;45.394;10.978;2023-08-21T12:21:11;11.20;;;9.88;;
23384;SDS011;11865;45.394;10.978;2023-08-21T12:23:38;10.90;;;9.73;;
23384;SDS011;11865;45.394;10.978;2023-08-21T12:26:06;11.40;;;10.10;;
23384;SDS011;11865;45.394;10.978;2023-08-21T12:28:33;12.80;;;9.32;;
23384;SDS011;11865;45.394;10.978;2023-08-21T12:31:00;10.93;;;9.43;;
23384;SDS011;11865;45.394;10.978;2023-08-21T12:33:28;13.93;;;9.93;;
23384;SDS011;11865;45.394;10.978;2023-08-21T12:35:56;15.45;;;9.85;;
23384;SDS011;11865;45.394;10.978;2023-08-21T12:38:23;18.45;;;10.57;;
23384;SDS011;11865;45.394;10.978;2023-08-21T12:40:56;12.18;;;10.23;;
23384;SDS011;11865;45.394;10.978;2023-08-21T12:43:23;10.48;;;9.32;;
23384;SDS011;11865;45.394;10.978;2023-08-21T12:45:52;14.50;;;10.18;;
23384;SDS011;11865;45.394;10.978;2023-08-21T12:48:19;16.95;;;9.23;;
23384;SDS011;11865;45.394;10.978;2023-08-21T12:50:47;11.90;;;9.68;;
23384;SDS011;11865;45.394;10.978;2023-08-21T12:53:14;13.82;;;9.40;;
23384;SDS011;11865;45.394;10.978;2023-08-21T12:55:42;13.45;;;9.38;;
23384;SDS011;11865;45.394;10.978;2023-08-21T12:58:09;15.55;;;10.50;;
23384;SDS011;11865;45.394;10.978;2023-08-21T13:00:40;14.07;;;10.85;;
23384;SDS011;11865;45.394;10.978;2023-08-21T13:03:08;12.93;;;11.15;;
23384;SDS011;11865;45.394;10.978;2023-08-21T13:05:35;11.85;;;10.32;;
23384;SDS011;11865;45.394;10.978;2023-08-21T13:08:03;12.40;;;10.50;;
23384;SDS011;11865;45.394;10.978;2023-08-21T13:10:31;15.93;;;10.88;;
23384;SDS011;11865;45.394;10.978;2023-08-21T13:12:58;12.80;;;10.60;;
23384;SDS011;11865;45.394;10.978;2023-08-21T13:15:26;12.60;;;10.68;;
23384;SDS011;11865;45.394;10.978;2023-08-21T13:17:53;13.05;;;9.63;;
23384;SDS011;11865;45.394;10.978;2023-08-21T13:20:21;16.48;;;10.85;;
23384;SDS011;11865;45.394;10.978;2023-08-21T13:22:50;11.73;;;10.52;;
23384;SDS011;11865;45.394;10.978;2023-08-21T13:25:19;13.30;;;9.75;;
23384;SDS011;11865;45.394;10.978;2023-08-21T13:27:47;11.75;;;9.65;;
23384;SDS011;11865;45.394;10.978;2023-08-21T13:30:15;10.98;;;9.73;;
23384;SDS011;11865;45.394;10.978;2023-08-21T13:32:43;14.32;;;10.95;;
23384;SDS011;11865;45.394;10.978;2023-08-21T13:35:11;12.98;;;10.20;;
23384;SDS011;11865;45.394;10.978;2023-08-21T13:37:39;31.98;;;13.35;;
23384;SDS011;11865;45.394;10.978;2023-08-21T13:40:07;31.10;;;13.55;;
23384;SDS011;11865;45.394;10.978;2023-08-21T13:42:40;14.18;;;10.70;;
23384;SDS011;11865;45.394;10.978;2023-08-21T13:45:11;11.77;;;10.07;;
23384;SDS011;11865;45.394;10.978;2023-08-21T13:47:40;10.52;;;9.43;;
23384;SDS011;11865;45.394;10.978;2023-08-21T13:50:16;12.77;;;10.57;;
23384;SDS011;11865;45.394;10.978;2023-08-21T13:52:45;13.10;;;10.25;;
23384;SDS011;11865;45.394;10.978;2023-08-21T13:55:13;12.65;;;10.23;;
23384;SDS011;11865;45.394;10.978;2023-08-21T13:57:42;16.83;;;11.45;;
23384;SDS011;11865;45.394;10.978;2023-08-21T14:00:10;12.10;;;9.85;;
23384;SDS011;11865;45.394;10.978;2023-08-21T14:02:44;13.73;;;10.43;;
23384;SDS011;11865;45.394;10.978;2023-08-21T14:05:12;12.85;;;10.27;;
23384;SDS011;11865;45.394;10.978;2023-08-21T14:07:40;13.63;;;11.13;;
23384;SDS011;11865;45.394;10.978;2023-08-21T14:10:08;19.80;;;10.27;;
23384;SDS011;11865;45.394;10.978;2023-08-21T14:12:36;13.15;;;10.15;;
23384;SDS011;11865;45.394;10.978;2023-08-21T14:15:08;15.18;;;11.43;;
23384;SDS011;11865;45.394;10.978;2023-08-21T14:17:36;11.50;;;9.98;;
23384;SDS011;11865;45.394;10.978;2023-08-21T14:20:05;10.85;;;9.63;;
23384;SDS011;11865;45.394;10.978;2023-08-21T14:22:34;12.57;;;10.23;;
23384;SDS011;11865;45.394;10.978;2023-08-21T14:25:01;11.60;;;9.77;;
23384;SDS011;11865;45.394;10.978;2023-08-21T14:27:32;14.73;;;9.90;;
23384;SDS011;11865;45.394;10.978;2023-08-21T14:30:00;14.35;;;9.95;;
23384;SDS011;11865;45.394;10.978;2023-08-21T14:32:27;14.50;;;10.02;;
23384;SDS011;11865;45.394;10.978;2023-08-21T14:34:55;13.98;;;10.25;;
23384;SDS011;11865;45.394;10.978;2023-08-21T14:37:22;13.80;;;10.45;;
23384;SDS011;11865;45.394;10.978;2023-08-21T14:39:50;11.60;;;9.98;;
23384;SDS011;11865;45.394;10.978;2023-08-21T14:42:18;14.80;;;10.40;;
23384;SDS011;11865;45.394;10.978;2023-08-21T14:44:46;12.43;;;10.18;;
23384;SDS011;11865;45.394;10.978;2023-08-21T14:47:13;12.95;;;9.90;;